sensor_id;sensor_type;location;lat;lon;timestamp;P1;durP1;ratioP1;P2;durP2;ratioP2
37407;SDS011;24866;50.248;8.252;2023-06-14T00:00:49;6.72;;;4.22;;
37407;SDS011;24866;50.248;8.252;2023-06-14T00:03:20;7.53;;;4.35;;
37407;SDS011;24866;50.248;8.252;2023-06-14T00:05:54;7.55;;;4.18;;
37407;SDS011;24866;50.248;8.252;2023-06-14T00:08:23;7.30;;;4.35;;
37407;SDS011;24866;50.248;8.252;2023-06-14T00:10:54;8.95;;;5.72;;
37407;SDS011;24866;50.248;8.252;2023-06-14T00:13:23;7.00;;;4.60;;
37407;SDS011;24866;50.248;8.252;2023-06-14T00:15:53;9.00;;;4.55;;
37407;SDS011;24866;50.248;8.252;2023-06-14T00:18:23;7.35;;;4.93;;
37407;SDS011;24866;50.248;8.252;2023-06-14T00:21:04;6.57;;;4.53;;
37407;SDS011;24866;50.248;8.252;2023-06-14T00:23:34;6.65;;;4.22;;
37407;SDS011;24866;50.248;8.252;2023-06-14T00:26:04;8.65;;;5.20;;
37407;SDS011;24866;50.248;8.252;2023-06-14T00:28:34;7.22;;;4.63;;
37407;SDS011;24866;50.248;8.252;2023-06-14T00:31:04;8.60;;;5.40;;
37407;SDS011;24866;50.248;8.252;2023-06-14T00:33:34;8.18;;;4.40;;
37407;SDS011;24866;50.248;8.252;2023-06-14T00:36:05;8.50;;;4.40;;
37407;SDS011;24866;50.248;8.252;2023-06-14T00:38:35;7.10;;;5.65;;
37407;SDS011;24866;50.248;8.252;2023-06-14T00:41:05;6.30;;;4.57;;
37407;SDS011;24866;50.248;8.252;2023-06-14T00:43:34;7.78;;;4.07;;
37407;SDS011;24866;50.248;8.252;2023-06-14T00:46:04;7.88;;;5.45;;
37407;SDS011;24866;50.248;8.252;2023-06-14T00:48:34;7.88;;;4.38;;
37407;SDS011;24866;50.248;8.252;2023-06-14T00:51:07;6.43;;;4.72;;
37407;SDS011;24866;50.248;8.252;2023-06-14T00:53:37;6.68;;;5.60;;
37407;SDS011;24866;50.248;8.252;2023-06-14T00:56:09;5.47;;;4.53;;
37407;SDS011;24866;50.248;8.252;2023-06-14T00:58:41;6.03;;;5.03;;
37407;SDS011;24866;50.248;8.252;2023-06-14T01:01:12;6.95;;;4.50;;
37407;SDS011;24866;50.248;8.252;2023-06-14T01:03:42;7.35;;;4.88;;
37407;SDS011;24866;50.248;8.252;2023-06-14T01:06:27;7.07;;;4.72;;
37407;SDS011;24866;50.248;8.252;2023-06-14T01:09:12;7.30;;;4.80;;
37407;SDS011;24866;50.248;8.252;2023-06-14T01:11:48;8.43;;;4.82;;
37407;SDS011;24866;50.248;8.252;2023-06-14T01:14:27;7.18;;;4.80;;
37407;SDS011;24866;50.248;8.252;2023-06-14T01:16:59;6.97;;;5.00;;
37407;SDS011;24866;50.248;8.252;2023-06-14T01:19:29;5.88;;;4.20;;
37407;SDS011;24866;50.248;8.252;2023-06-14T01:22:03;5.65;;;4.53;;
37407;SDS011;24866;50.248;8.252;2023-06-14T01:24:35;8.50;;;4.80;;
37407;SDS011;24866;50.248;8.252;2023-06-14T01:27:05;5.90;;;4.20;;
37407;SDS011;24866;50.248;8.252;2023-06-14T01:29:36;6.88;;;5.07;;
37407;SDS011;24866;50.248;8.252;2023-06-14T01:32:07;7.72;;;4.90;;
37407;SDS011;24866;50.248;8.252;2023-06-14T01:34:37;6.90;;;5.10;;
37407;SDS011;24866;50.248;8.252;2023-06-14T01:37:06;6.95;;;4.95;;
37407;SDS011;24866;50.248;8.252;2023-06-14T01:39:39;6.40;;;4.95;;
37407;SDS011;24866;50.248;8.252;2023-06-14T01:42:10;6.88;;;5.25;;
37407;SDS011;24866;50.248;8.252;2023-06-14T01:44:42;5.75;;;4.78;;
37407;SDS011;24866;50.248;8.252;2023-06-14T01:47:13;7.32;;;4.82;;
37407;SDS011;24866;50.248;8.252;2023-06-14T01:49:44;6.55;;;4.70;;
37407;SDS011;24866;50.248;8.252;2023-06-14T01:52:16;7.80;;;4.83;;
37407;SDS011;24866;50.248;8.252;2023-06-14T01:54:48;6.50;;;4.65;;
37407;SDS011;24866;50.248;8.252;2023-06-14T01:57:18;8.80;;;5.07;;
37407;SDS011;24866;50.248;8.252;2023-06-14T01:59:49;6.13;;;4.82;;
37407;SDS011;24866;50.248;8.252;2023-06-14T02:02:19;9.00;;;5.45;;
37407;SDS011;24866;50.248;8.252;2023-06-14T02:04:49;8.18;;;5.15;;
37407;SDS011;24866;50.248;8.252;2023-06-14T02:07:19;8.13;;;5.22;;
37407;SDS011;24866;50.248;8.252;2023-06-14T02:09:50;7.05;;;5.22;;
37407;SDS011;24866;50.248;8.252;2023-06-14T02:12:20;6.40;;;5.07;;
37407;SDS011;24866;50.248;8.252;2023-06-14T02:14:50;6.35;;;4.60;;
37407;SDS011;24866;50.248;8.252;2023-06-14T02:17:20;8.35;;;4.80;;
37407;SDS011;24866;50.248;8.252;2023-06-14T02:19:49;6.43;;;5.05;;
37407;SDS011;24866;50.248;8.252;2023-06-14T02:22:19;8.13;;;5.10;;
37407;SDS011;24866;50.248;8.252;2023-06-14T02:24:51;6.85;;;4.80;;
37407;SDS011;24866;50.248;8.252;2023-06-14T02:27:21;6.60;;;4.63;;
37407;SDS011;24866;50.248;8.252;2023-06-14T02:29:51;8.20;;;5.72;;
37407;SDS011;24866;50.248;8.252;2023-06-14T02:32:20;6.47;;;5.00;;
37407;SDS011;24866;50.248;8.252;2023-06-14T02:34:50;8.82;;;4.90;;
37407;SDS011;24866;50.248;8.252;2023-06-14T02:37:21;7.53;;;4.78;;
37407;SDS011;24866;50.248;8.252;2023-06-14T02:39:52;6.38;;;4.70;;
37407;SDS011;24866;50.248;8.252;2023-06-14T02:42:22;6.80;;;5.13;;
37407;SDS011;24866;50.248;8.252;2023-06-14T02:44:52;7.38;;;5.40;;
37407;SDS011;24866;50.248;8.252;2023-06-14T02:47:21;7.65;;;4.80;;
37407;SDS011;24866;50.248;8.252;2023-06-14T02:49:52;6.30;;;4.60;;
37407;SDS011;24866;50.248;8.252;2023-06-14T02:52:22;7.50;;;5.07;;
37407;SDS011;24866;50.248;8.252;2023-06-14T02:54:54;7.90;;;5.10;;
37407;SDS011;24866;50.248;8.252;2023-06-14T02:57:24;8.05;;;5.45;;
37407;SDS011;24866;50.248;8.252;2023-06-14T02:59:54;7.68;;;4.95;;
37407;SDS011;24866;50.248;8.252;2023-06-14T03:02:23;7.63;;;5.10;;
37407;SDS011;24866;50.248;8.252;2023-06-14T03:04:53;6.47;;;5.07;;
37407;SDS011;24866;50.248;8.252;2023-06-14T03:07:23;7.25;;;4.50;;
37407;SDS011;24866;50.248;8.252;2023-06-14T03:09:57;6.45;;;4.80;;
37407;SDS011;24866;50.248;8.252;2023-06-14T03:12:26;9.38;;;4.72;;
37407;SDS011;24866;50.248;8.252;2023-06-14T03:14:56;6.65;;;4.72;;
37407;SDS011;24866;50.248;8.252;2023-06-14T03:17:30;7.55;;;5.18;;
37407;SDS011;24866;50.248;8.252;2023-06-14T03:20:01;7.53;;;4.70;;
37407;SDS011;24866;50.248;8.252;2023-06-14T03:25:06;6.72;;;4.75;;
37407;SDS011;24866;50.248;8.252;2023-06-14T03:27:37;9.05;;;5.40;;
37407;SDS011;24866;50.248;8.252;2023-06-14T03:30:07;8.38;;;4.72;;
37407;SDS011;24866;50.248;8.252;2023-06-14T03:32:38;7.78;;;5.22;;
37407;SDS011;24866;50.248;8.252;2023-06-14T03:35:08;7.35;;;4.93;;
37407;SDS011;24866;50.248;8.252;2023-06-14T03:37:45;8.77;;;5.03;;
37407;SDS011;24866;50.248;8.252;2023-06-14T03:40:17;6.63;;;5.20;;
37407;SDS011;24866;50.248;8.252;2023-06-14T03:42:48;7.82;;;5.53;;
37407;SDS011;24866;50.248;8.252;2023-06-14T03:45:18;9.75;;;5.43;;
37407;SDS011;24866;50.248;8.252;2023-06-14T03:47:48;8.10;;;5.20;;
37407;SDS011;24866;50.248;8.252;2023-06-14T03:50:19;7.15;;;5.53;;
37407;SDS011;24866;50.248;8.252;2023-06-14T03:52:49;6.75;;;5.15;;
37407;SDS011;24866;50.248;8.252;2023-06-14T03:55:20;6.75;;;5.30;;
37407;SDS011;24866;50.248;8.252;2023-06-14T03:57:53;8.07;;;5.80;;
37407;SDS011;24866;50.248;8.252;2023-06-14T04:00:23;7.07;;;5.32;;
37407;SDS011;24866;50.248;8.252;2023-06-14T04:02:52;7.28;;;4.93;;
37407;SDS011;24866;50.248;8.252;2023-06-14T04:05:23;8.27;;;5.20;;
37407;SDS011;24866;50.248;8.252;2023-06-14T04:07:54;6.13;;;5.03;;
37407;SDS011;24866;50.248;8.252;2023-06-14T04:10:27;10.85;;;5.78;;
37407;SDS011;24866;50.248;8.252;2023-06-14T04:12:57;5.70;;;5.10;;
37407;SDS011;24866;50.248;8.252;2023-06-14T04:15:27;6.70;;;5.43;;
37407;SDS011;24866;50.248;8.252;2023-06-14T04:17:57;7.10;;;5.30;;
37407;SDS011;24866;50.248;8.252;2023-06-14T04:20:27;7.28;;;5.07;;
37407;SDS011;24866;50.248;8.252;2023-06-14T04:22:57;8.35;;;5.20;;
37407;SDS011;24866;50.248;8.252;2023-06-14T04:25:30;7.97;;;5.53;;
37407;SDS011;24866;50.248;8.252;2023-06-14T04:28:00;7.20;;;5.60;;
37407;SDS011;24866;50.248;8.252;2023-06-14T04:30:30;8.10;;;6.00;;
37407;SDS011;24866;50.248;8.252;2023-06-14T04:33:00;7.53;;;6.05;;
37407;SDS011;24866;50.248;8.252;2023-06-14T04:35:33;9.75;;;5.68;;
37407;SDS011;24866;50.248;8.252;2023-06-14T04:38:05;14.48;;;5.72;;
37407;SDS011;24866;50.248;8.252;2023-06-14T04:40:38;9.35;;;6.00;;
37407;SDS011;24866;50.248;8.252;2023-06-14T04:43:10;8.95;;;5.18;;
37407;SDS011;24866;50.248;8.252;2023-06-14T04:45:41;10.52;;;6.10;;
37407;SDS011;24866;50.248;8.252;2023-06-14T04:48:13;8.90;;;5.25;;
37407;SDS011;24866;50.248;8.252;2023-06-14T04:50:43;9.63;;;5.47;;
37407;SDS011;24866;50.248;8.252;2023-06-14T04:53:13;6.80;;;5.50;;
37407;SDS011;24866;50.248;8.252;2023-06-14T04:55:45;8.38;;;5.38;;
37407;SDS011;24866;50.248;8.252;2023-06-14T04:58:15;8.27;;;5.72;;
37407;SDS011;24866;50.248;8.252;2023-06-14T05:00:46;12.38;;;5.70;;
37407;SDS011;24866;50.248;8.252;2023-06-14T05:03:16;7.15;;;5.40;;
37407;SDS011;24866;50.248;8.252;2023-06-14T05:05:47;9.30;;;5.20;;
37407;SDS011;24866;50.248;8.252;2023-06-14T05:08:18;9.13;;;5.45;;
37407;SDS011;24866;50.248;8.252;2023-06-14T05:10:52;8.48;;;5.88;;
37407;SDS011;24866;50.248;8.252;2023-06-14T05:13:23;6.63;;;5.22;;
37407;SDS011;24866;50.248;8.252;2023-06-14T05:15:55;7.95;;;5.78;;
37407;SDS011;24866;50.248;8.252;2023-06-14T05:18:26;7.43;;;5.32;;
37407;SDS011;24866;50.248;8.252;2023-06-14T05:20:56;9.13;;;5.43;;
37407;SDS011;24866;50.248;8.252;2023-06-14T05:23:26;12.10;;;6.32;;
37407;SDS011;24866;50.248;8.252;2023-06-14T05:25:57;7.00;;;4.72;;
37407;SDS011;24866;50.248;8.252;2023-06-14T05:28:27;9.80;;;4.65;;
37407;SDS011;24866;50.248;8.252;2023-06-14T05:30:57;8.57;;;4.50;;
37407;SDS011;24866;50.248;8.252;2023-06-14T05:33:27;5.50;;;4.53;;
37407;SDS011;24866;50.248;8.252;2023-06-14T05:35:57;8.60;;;4.72;;
37407;SDS011;24866;50.248;8.252;2023-06-14T05:38:27;8.05;;;4.88;;
37407;SDS011;24866;50.248;8.252;2023-06-14T05:40:58;9.30;;;5.38;;
37407;SDS011;24866;50.248;8.252;2023-06-14T05:43:28;10.45;;;5.15;;
37407;SDS011;24866;50.248;8.252;2023-06-14T05:45:59;8.93;;;4.53;;
37407;SDS011;24866;50.248;8.252;2023-06-14T05:48:30;8.18;;;4.15;;
37407;SDS011;24866;50.248;8.252;2023-06-14T05:51:00;6.55;;;4.10;;
37407;SDS011;24866;50.248;8.252;2023-06-14T05:53:30;9.13;;;4.75;;
37407;SDS011;24866;50.248;8.252;2023-06-14T05:56:02;8.63;;;4.30;;
37407;SDS011;24866;50.248;8.252;2023-06-14T05:58:32;7.75;;;4.25;;
37407;SDS011;24866;50.248;8.252;2023-06-14T06:01:01;7.82;;;4.35;;
37407;SDS011;24866;50.248;8.252;2023-06-14T06:03:31;8.30;;;4.22;;
37407;SDS011;24866;50.248;8.252;2023-06-14T06:06:01;8.10;;;4.15;;
37407;SDS011;24866;50.248;8.252;2023-06-14T06:08:31;6.70;;;4.22;;
37407;SDS011;24866;50.248;8.252;2023-06-14T06:11:04;9.63;;;4.60;;
37407;SDS011;24866;50.248;8.252;2023-06-14T06:13:37;7.28;;;3.90;;
37407;SDS011;24866;50.248;8.252;2023-06-14T06:16:08;6.90;;;4.20;;
37407;SDS011;24866;50.248;8.252;2023-06-14T06:18:39;5.65;;;3.33;;
37407;SDS011;24866;50.248;8.252;2023-06-14T06:21:08;5.65;;;3.38;;
37407;SDS011;24866;50.248;8.252;2023-06-14T06:23:38;8.30;;;3.58;;
37407;SDS011;24866;50.248;8.252;2023-06-14T06:26:09;7.78;;;3.60;;
37407;SDS011;24866;50.248;8.252;2023-06-14T06:28:39;7.43;;;3.70;;
37407;SDS011;24866;50.248;8.252;2023-06-14T06:31:12;4.25;;;3.15;;
37407;SDS011;24866;50.248;8.252;2023-06-14T06:33:42;7.20;;;3.80;;
37407;SDS011;24866;50.248;8.252;2023-06-14T06:36:12;5.78;;;3.50;;
37407;SDS011;24866;50.248;8.252;2023-06-14T06:38:41;6.55;;;3.67;;
37407;SDS011;24866;50.248;8.252;2023-06-14T06:41:13;6.07;;;3.67;;
37407;SDS011;24866;50.248;8.252;2023-06-14T06:43:43;4.97;;;3.35;;
37407;SDS011;24866;50.248;8.252;2023-06-14T06:46:13;7.93;;;3.22;;
37407;SDS011;24866;50.248;8.252;2023-06-14T06:48:42;7.68;;;3.03;;
37407;SDS011;24866;50.248;8.252;2023-06-14T06:51:12;9.07;;;3.28;;
37407;SDS011;24866;50.248;8.252;2023-06-14T06:53:43;5.13;;;3.13;;
37407;SDS011;24866;50.248;8.252;2023-06-14T06:56:14;8.50;;;3.28;;
37407;SDS011;24866;50.248;8.252;2023-06-14T06:58:46;6.10;;;3.00;;
37407;SDS011;24866;50.248;8.252;2023-06-14T07:01:16;5.47;;;2.85;;
37407;SDS011;24866;50.248;8.252;2023-06-14T07:03:47;4.70;;;2.72;;
37407;SDS011;24866;50.248;8.252;2023-06-14T07:06:17;5.50;;;2.58;;
37407;SDS011;24866;50.248;8.252;2023-06-14T07:08:47;4.22;;;2.55;;
37407;SDS011;24866;50.248;8.252;2023-06-14T07:11:19;4.38;;;2.90;;
37407;SDS011;24866;50.248;8.252;2023-06-14T07:13:49;6.88;;;3.03;;
37407;SDS011;24866;50.248;8.252;2023-06-14T07:16:19;5.45;;;2.45;;
37407;SDS011;24866;50.248;8.252;2023-06-14T07:18:49;4.20;;;2.25;;
37407;SDS011;24866;50.248;8.252;2023-06-14T07:21:18;6.32;;;2.50;;
37407;SDS011;24866;50.248;8.252;2023-06-14T07:23:49;5.40;;;2.58;;
37407;SDS011;24866;50.248;8.252;2023-06-14T07:26:22;4.70;;;2.23;;
37407;SDS011;24866;50.248;8.252;2023-06-14T07:28:51;3.40;;;2.28;;
37407;SDS011;24866;50.248;8.252;2023-06-14T07:31:21;4.93;;;2.50;;
37407;SDS011;24866;50.248;8.252;2023-06-14T07:33:51;6.28;;;2.45;;
37407;SDS011;24866;50.248;8.252;2023-06-14T07:36:22;4.65;;;2.13;;
37407;SDS011;24866;50.248;8.252;2023-06-14T07:38:52;4.95;;;2.45;;
37407;SDS011;24866;50.248;8.252;2023-06-14T07:41:24;5.50;;;2.33;;
37407;SDS011;24866;50.248;8.252;2023-06-14T07:43:55;4.53;;;2.55;;
37407;SDS011;24866;50.248;8.252;2023-06-14T07:46:25;6.65;;;2.35;;
37407;SDS011;24866;50.248;8.252;2023-06-14T07:48:56;4.05;;;2.30;;
37407;SDS011;24866;50.248;8.252;2023-06-14T07:51:26;7.80;;;2.45;;
37407;SDS011;24866;50.248;8.252;2023-06-14T07:53:56;5.55;;;2.15;;
37407;SDS011;24866;50.248;8.252;2023-06-14T07:56:30;4.55;;;2.28;;
37407;SDS011;24866;50.248;8.252;2023-06-14T07:59:00;5.28;;;2.00;;
37407;SDS011;24866;50.248;8.252;2023-06-14T08:01:29;7.55;;;2.33;;
37407;SDS011;24866;50.248;8.252;2023-06-14T08:03:59;4.75;;;2.00;;
37407;SDS011;24866;50.248;8.252;2023-06-14T08:06:29;3.30;;;2.15;;
37407;SDS011;24866;50.248;8.252;2023-06-14T08:08:59;3.08;;;1.77;;
37407;SDS011;24866;50.248;8.252;2023-06-14T08:11:30;5.70;;;1.70;;
37407;SDS011;24866;50.248;8.252;2023-06-14T08:14:00;2.88;;;1.70;;
37407;SDS011;24866;50.248;8.252;2023-06-14T08:16:31;4.70;;;1.70;;
37407;SDS011;24866;50.248;8.252;2023-06-14T08:19:00;4.68;;;1.85;;
37407;SDS011;24866;50.248;8.252;2023-06-14T08:21:30;4.78;;;1.80;;
37407;SDS011;24866;50.248;8.252;2023-06-14T08:24:01;3.03;;;2.00;;
37407;SDS011;24866;50.248;8.252;2023-06-14T08:26:33;7.43;;;2.33;;
37407;SDS011;24866;50.248;8.252;2023-06-14T08:29:04;2.75;;;1.60;;
37407;SDS011;24866;50.248;8.252;2023-06-14T08:31:36;3.72;;;2.00;;
37407;SDS011;24866;50.248;8.252;2023-06-14T08:34:05;5.05;;;2.22;;
37407;SDS011;24866;50.248;8.252;2023-06-14T08:36:35;2.75;;;1.70;;
37407;SDS011;24866;50.248;8.252;2023-06-14T08:39:05;5.05;;;2.28;;
37407;SDS011;24866;50.248;8.252;2023-06-14T08:41:38;3.03;;;1.65;;
37407;SDS011;24866;50.248;8.252;2023-06-14T08:44:08;3.83;;;1.73;;
37407;SDS011;24866;50.248;8.252;2023-06-14T08:46:38;3.45;;;1.55;;
37407;SDS011;24866;50.248;8.252;2023-06-14T08:49:10;3.30;;;1.55;;
37407;SDS011;24866;50.248;8.252;2023-06-14T08:51:41;2.15;;;1.80;;
37407;SDS011;24866;50.248;8.252;2023-06-14T08:54:12;4.20;;;1.48;;
37407;SDS011;24866;50.248;8.252;2023-06-14T08:56:44;5.28;;;1.90;;
37407;SDS011;24866;50.248;8.252;2023-06-14T08:59:16;3.05;;;1.65;;
37407;SDS011;24866;50.248;8.252;2023-06-14T09:01:46;3.83;;;1.55;;
37407;SDS011;24866;50.248;8.252;2023-06-14T09:04:17;6.30;;;1.90;;
37407;SDS011;24866;50.248;8.252;2023-06-14T09:06:47;3.67;;;2.10;;
37407;SDS011;24866;50.248;8.252;2023-06-14T09:09:20;2.30;;;1.50;;
37407;SDS011;24866;50.248;8.252;2023-06-14T09:11:52;3.13;;;1.70;;
37407;SDS011;24866;50.248;8.252;2023-06-14T09:14:23;4.25;;;1.92;;
37407;SDS011;24866;50.248;8.252;2023-06-14T09:16:54;3.20;;;1.70;;
37407;SDS011;24866;50.248;8.252;2023-06-14T09:19:24;4.70;;;1.50;;
37407;SDS011;24866;50.248;8.252;2023-06-14T09:21:54;2.95;;;1.40;;
37407;SDS011;24866;50.248;8.252;2023-06-14T09:24:24;3.50;;;1.33;;
37407;SDS011;24866;50.248;8.252;2023-06-14T09:26:55;3.25;;;1.67;;
37407;SDS011;24866;50.248;8.252;2023-06-14T09:29:26;2.40;;;1.70;;
37407;SDS011;24866;50.248;8.252;2023-06-14T09:31:56;3.70;;;1.80;;
37407;SDS011;24866;50.248;8.252;2023-06-14T09:34:26;3.05;;;2.08;;
37407;SDS011;24866;50.248;8.252;2023-06-14T09:36:55;3.85;;;1.83;;
37407;SDS011;24866;50.248;8.252;2023-06-14T09:39:27;2.88;;;1.70;;
37407;SDS011;24866;50.248;8.252;2023-06-14T09:41:58;4.55;;;1.80;;
37407;SDS011;24866;50.248;8.252;2023-06-14T09:44:28;3.13;;;1.77;;
37407;SDS011;24866;50.248;8.252;2023-06-14T09:46:58;4.20;;;1.88;;
37407;SDS011;24866;50.248;8.252;2023-06-14T09:49:28;4.78;;;1.77;;
37407;SDS011;24866;50.248;8.252;2023-06-14T09:51:58;4.43;;;1.50;;
37407;SDS011;24866;50.248;8.252;2023-06-14T09:54:28;3.30;;;1.65;;
37407;SDS011;24866;50.248;8.252;2023-06-14T09:57:00;2.40;;;1.70;;
37407;SDS011;24866;50.248;8.252;2023-06-14T09:59:31;5.07;;;1.55;;
37407;SDS011;24866;50.248;8.252;2023-06-14T10:02:04;3.55;;;2.10;;
37407;SDS011;24866;50.248;8.252;2023-06-14T10:04:38;3.25;;;1.90;;
37407;SDS011;24866;50.248;8.252;2023-06-14T10:07:14;5.32;;;1.90;;
37407;SDS011;24866;50.248;8.252;2023-06-14T10:09:48;3.72;;;1.90;;
37407;SDS011;24866;50.248;8.252;2023-06-14T10:12:20;5.20;;;1.80;;
37407;SDS011;24866;50.248;8.252;2023-06-14T10:14:51;4.75;;;1.58;;
37407;SDS011;24866;50.248;8.252;2023-06-14T10:17:24;4.40;;;1.85;;
37407;SDS011;24866;50.248;8.252;2023-06-14T10:20:12;8.02;;;1.80;;
37407;SDS011;24866;50.248;8.252;2023-06-14T10:22:49;3.28;;;1.75;;
37407;SDS011;24866;50.248;8.252;2023-06-14T10:25:28;3.20;;;1.83;;
37407;SDS011;24866;50.248;8.252;2023-06-14T10:28:05;3.83;;;2.08;;
37407;SDS011;24866;50.248;8.252;2023-06-14T10:31:04;3.75;;;2.20;;
37407;SDS011;24866;50.248;8.252;2023-06-14T10:33:35;4.15;;;2.03;;
37407;SDS011;24866;50.248;8.252;2023-06-14T10:38:59;2.03;;;1.33;;
37407;SDS011;24866;50.248;8.252;2023-06-14T10:41:34;3.30;;;2.00;;
37407;SDS011;24866;50.248;8.252;2023-06-14T10:47:10;5.15;;;2.47;;
37407;SDS011;24866;50.248;8.252;2023-06-14T10:49:50;3.97;;;1.85;;
37407;SDS011;24866;50.248;8.252;2023-06-14T10:52:22;5.93;;;1.75;;
37407;SDS011;24866;50.248;8.252;2023-06-14T10:54:59;5.15;;;1.80;;
37407;SDS011;24866;50.248;8.252;2023-06-14T10:57:37;4.72;;;1.70;;
37407;SDS011;24866;50.248;8.252;2023-06-14T11:00:12;4.57;;;2.15;;
37407;SDS011;24866;50.248;8.252;2023-06-14T11:05:57;3.35;;;1.95;;
37407;SDS011;24866;50.248;8.252;2023-06-14T11:11:34;6.13;;;2.20;;
37407;SDS011;24866;50.248;8.252;2023-06-14T11:14:06;2.65;;;1.90;;
37407;SDS011;24866;50.248;8.252;2023-06-14T11:16:37;2.75;;;1.77;;
37407;SDS011;24866;50.248;8.252;2023-06-14T11:19:07;4.95;;;1.98;;
37407;SDS011;24866;50.248;8.252;2023-06-14T11:21:39;3.67;;;1.95;;
37407;SDS011;24866;50.248;8.252;2023-06-14T11:24:10;4.65;;;2.00;;
37407;SDS011;24866;50.248;8.252;2023-06-14T11:26:40;5.13;;;2.22;;
37407;SDS011;24866;50.248;8.252;2023-06-14T11:29:11;4.45;;;2.15;;
37407;SDS011;24866;50.248;8.252;2023-06-14T11:31:44;5.63;;;1.73;;
37407;SDS011;24866;50.248;8.252;2023-06-14T11:34:14;3.50;;;1.80;;
37407;SDS011;24866;50.248;8.252;2023-06-14T11:36:44;2.55;;;1.63;;
37407;SDS011;24866;50.248;8.252;2023-06-14T11:39:15;5.22;;;1.90;;
37407;SDS011;24866;50.248;8.252;2023-06-14T11:41:45;2.90;;;1.85;;
37407;SDS011;24866;50.248;8.252;2023-06-14T11:44:15;3.72;;;1.90;;
37407;SDS011;24866;50.248;8.252;2023-06-14T11:46:46;4.38;;;1.90;;
37407;SDS011;24866;50.248;8.252;2023-06-14T11:49:16;3.30;;;2.00;;
37407;SDS011;24866;50.248;8.252;2023-06-14T11:51:46;6.50;;;1.88;;
37407;SDS011;24866;50.248;8.252;2023-06-14T11:54:16;4.53;;;1.80;;
37407;SDS011;24866;50.248;8.252;2023-06-14T11:56:46;4.47;;;1.92;;
37407;SDS011;24866;50.248;8.252;2023-06-14T11:59:16;4.18;;;2.17;;
37407;SDS011;24866;50.248;8.252;2023-06-14T12:01:48;5.63;;;2.00;;
37407;SDS011;24866;50.248;8.252;2023-06-14T12:04:23;3.30;;;2.05;;
37407;SDS011;24866;50.248;8.252;2023-06-14T12:06:54;2.90;;;1.90;;
37407;SDS011;24866;50.248;8.252;2023-06-14T12:09:25;2.92;;;1.90;;
37407;SDS011;24866;50.248;8.252;2023-06-14T12:11:59;3.83;;;2.00;;
37407;SDS011;24866;50.248;8.252;2023-06-14T12:14:30;4.97;;;2.25;;
37407;SDS011;24866;50.248;8.252;2023-06-14T12:17:05;4.00;;;2.00;;
37407;SDS011;24866;50.248;8.252;2023-06-14T12:19:41;4.88;;;2.45;;
37407;SDS011;24866;50.248;8.252;2023-06-14T12:22:12;5.40;;;1.73;;
37407;SDS011;24866;50.248;8.252;2023-06-14T12:24:42;6.38;;;2.35;;
37407;SDS011;24866;50.248;8.252;2023-06-14T12:27:12;2.60;;;1.80;;
37407;SDS011;24866;50.248;8.252;2023-06-14T12:29:43;3.17;;;2.17;;
37407;SDS011;24866;50.248;8.252;2023-06-14T12:32:15;4.93;;;2.20;;
37407;SDS011;24866;50.248;8.252;2023-06-14T12:34:45;4.65;;;2.20;;
37407;SDS011;24866;50.248;8.252;2023-06-14T12:37:16;3.78;;;1.98;;
37407;SDS011;24866;50.248;8.252;2023-06-14T12:39:46;6.72;;;2.08;;
37407;SDS011;24866;50.248;8.252;2023-06-14T12:42:16;3.75;;;1.95;;
37407;SDS011;24866;50.248;8.252;2023-06-14T12:44:46;5.75;;;2.30;;
37407;SDS011;24866;50.248;8.252;2023-06-14T12:47:17;5.78;;;2.20;;
37407;SDS011;24866;50.248;8.252;2023-06-14T12:49:50;2.60;;;1.85;;
37407;SDS011;24866;50.248;8.252;2023-06-14T12:52:19;4.07;;;1.95;;
37407;SDS011;24866;50.248;8.252;2023-06-14T12:54:49;3.70;;;2.13;;
37407;SDS011;24866;50.248;8.252;2023-06-14T12:57:19;2.42;;;1.70;;
37407;SDS011;24866;50.248;8.252;2023-06-14T12:59:49;4.65;;;2.13;;
37407;SDS011;24866;50.248;8.252;2023-06-14T13:02:20;4.20;;;2.03;;
37407;SDS011;24866;50.248;8.252;2023-06-14T13:04:52;4.40;;;2.50;;
37407;SDS011;24866;50.248;8.252;2023-06-14T13:07:22;2.47;;;1.80;;
37407;SDS011;24866;50.248;8.252;2023-06-14T13:09:52;3.30;;;1.77;;
37407;SDS011;24866;50.248;8.252;2023-06-14T13:12:22;5.40;;;2.22;;
37407;SDS011;24866;50.248;8.252;2023-06-14T13:14:52;4.07;;;1.50;;
37407;SDS011;24866;50.248;8.252;2023-06-14T13:17:23;2.75;;;1.50;;
37407;SDS011;24866;50.248;8.252;2023-06-14T13:19:53;2.95;;;1.63;;
37407;SDS011;24866;50.248;8.252;2023-06-14T13:22:23;2.38;;;1.63;;
37407;SDS011;24866;50.248;8.252;2023-06-14T13:24:53;4.97;;;2.17;;
37407;SDS011;24866;50.248;8.252;2023-06-14T13:27:23;2.65;;;1.88;;
37407;SDS011;24866;50.248;8.252;2023-06-14T13:29:55;3.27;;;1.70;;
37407;SDS011;24866;50.248;8.252;2023-06-14T13:32:26;4.72;;;1.80;;
37407;SDS011;24866;50.248;8.252;2023-06-14T13:34:56;4.15;;;1.90;;
37407;SDS011;24866;50.248;8.252;2023-06-14T13:37:26;4.43;;;2.28;;
37407;SDS011;24866;50.248;8.252;2023-06-14T13:39:56;3.55;;;1.98;;
37407;SDS011;24866;50.248;8.252;2023-06-14T13:42:26;2.70;;;1.60;;
37407;SDS011;24866;50.248;8.252;2023-06-14T13:45:01;4.13;;;2.00;;
37407;SDS011;24866;50.248;8.252;2023-06-14T13:47:33;2.67;;;2.00;;
37407;SDS011;24866;50.248;8.252;2023-06-14T13:50:03;7.38;;;2.20;;
37407;SDS011;24866;50.248;8.252;2023-06-14T13:52:34;3.33;;;1.80;;
37407;SDS011;24866;50.248;8.252;2023-06-14T13:55:04;5.25;;;2.35;;
37407;SDS011;24866;50.248;8.252;2023-06-14T13:57:34;3.03;;;1.88;;
37407;SDS011;24866;50.248;8.252;2023-06-14T14:00:05;4.55;;;2.00;;
37407;SDS011;24866;50.248;8.252;2023-06-14T14:02:38;4.50;;;1.80;;
37407;SDS011;24866;50.248;8.252;2023-06-14T14:05:09;4.07;;;1.90;;
37407;SDS011;24866;50.248;8.252;2023-06-14T14:07:39;4.53;;;2.28;;
37407;SDS011;24866;50.248;8.252;2023-06-14T14:10:10;4.55;;;2.35;;
37407;SDS011;24866;50.248;8.252;2023-06-14T14:12:41;4.00;;;2.20;;
37407;SDS011;24866;50.248;8.252;2023-06-14T14:15:11;3.10;;;2.03;;
37407;SDS011;24866;50.248;8.252;2023-06-14T14:17:44;3.55;;;2.08;;
37407;SDS011;24866;50.248;8.252;2023-06-14T14:20:15;2.53;;;2.00;;
37407;SDS011;24866;50.248;8.252;2023-06-14T14:22:45;2.75;;;1.80;;
37407;SDS011;24866;50.248;8.252;2023-06-14T14:25:15;2.40;;;1.80;;
37407;SDS011;24866;50.248;8.252;2023-06-14T14:27:45;8.40;;;1.98;;
37407;SDS011;24866;50.248;8.252;2023-06-14T14:30:14;3.13;;;1.90;;
37407;SDS011;24866;50.248;8.252;2023-06-14T14:32:47;3.40;;;2.17;;
37407;SDS011;24866;50.248;8.252;2023-06-14T14:35:18;6.43;;;2.05;;
37407;SDS011;24866;50.248;8.252;2023-06-14T14:37:47;3.67;;;2.00;;
37407;SDS011;24866;50.248;8.252;2023-06-14T14:40:17;3.60;;;1.75;;
37407;SDS011;24866;50.248;8.252;2023-06-14T14:42:47;3.30;;;1.85;;
37407;SDS011;24866;50.248;8.252;2023-06-14T14:45:18;2.72;;;2.00;;
37407;SDS011;24866;50.248;8.252;2023-06-14T14:47:49;6.78;;;2.08;;
37407;SDS011;24866;50.248;8.252;2023-06-14T14:50:19;2.83;;;1.83;;
37407;SDS011;24866;50.248;8.252;2023-06-14T14:52:49;6.13;;;2.03;;
37407;SDS011;24866;50.248;8.252;2023-06-14T14:55:19;5.55;;;2.78;;
37407;SDS011;24866;50.248;8.252;2023-06-14T14:57:51;4.07;;;1.98;;
37407;SDS011;24866;50.248;8.252;2023-06-14T15:00:21;5.05;;;2.20;;
37407;SDS011;24866;50.248;8.252;2023-06-14T15:02:52;4.68;;;2.38;;
37407;SDS011;24866;50.248;8.252;2023-06-14T15:05:22;4.47;;;2.00;;
37407;SDS011;24866;50.248;8.252;2023-06-14T15:07:52;2.47;;;1.80;;
37407;SDS011;24866;50.248;8.252;2023-06-14T15:10:22;5.55;;;1.95;;
37407;SDS011;24866;50.248;8.252;2023-06-14T15:12:53;3.08;;;2.05;;
37407;SDS011;24866;50.248;8.252;2023-06-14T15:15:23;5.70;;;2.28;;
37407;SDS011;24866;50.248;8.252;2023-06-14T15:17:55;2.85;;;1.83;;
37407;SDS011;24866;50.248;8.252;2023-06-14T15:20:26;2.70;;;2.33;;
37407;SDS011;24866;50.248;8.252;2023-06-14T15:22:56;3.20;;;1.80;;
37407;SDS011;24866;50.248;8.252;2023-06-14T15:25:27;5.35;;;2.42;;